createdAt,value
2019-02-12T00:01:32.055Z,8.88
2019-02-12T00:04:00.595Z,9.55
2019-02-12T00:06:28.689Z,7.75
2019-02-12T00:08:57.536Z,9.65
2019-02-12T00:11:27.267Z,8.35
2019-02-12T00:13:55.635Z,8.58
2019-02-12T00:16:25.485Z,9.73
2019-02-12T00:18:53.969Z,13.83
2019-02-12T00:21:22.392Z,8.85
2019-02-12T00:23:51.195Z,9.55
2019-02-12T00:26:19.979Z,11.50
2019-02-12T00:28:48.108Z,13.08
2019-02-12T00:31:16.777Z,9.58
2019-02-12T00:33:45.061Z,15.00
2019-02-12T00:36:13.721Z,14.60
2019-02-12T00:38:41.925Z,14.47
2019-02-12T00:41:10.374Z,10.60
2019-02-12T00:43:39.181Z,11.73
2019-02-12T00:46:07.421Z,12.05
2019-02-12T00:48:35.528Z,11.50
2019-02-12T00:51:03.583Z,13.93
2019-02-12T00:53:32.092Z,9.68
2019-02-12T00:56:00.240Z,8.70
2019-02-12T00:58:28.725Z,13.00
2019-02-12T01:00:56.827Z,9.73
2019-02-12T01:03:25.709Z,8.80
2019-02-12T01:05:54.058Z,9.68
2019-02-12T01:08:22.642Z,9.07
2019-02-12T01:10:50.781Z,11.30
2019-02-12T01:13:19.495Z,11.30
2019-02-12T01:15:47.541Z,11.43
2019-02-12T01:18:16.145Z,10.95
2019-02-12T01:20:44.583Z,8.88
2019-02-12T01:23:13.329Z,11.60
2019-02-12T01:25:41.434Z,9.93
2019-02-12T01:28:10.347Z,10.43
2019-02-12T01:30:38.768Z,10.85
2019-02-12T01:33:06.827Z,8.63
2019-02-12T01:35:34.944Z,11.37
2019-02-12T01:38:03.596Z,9.85
2019-02-12T01:40:32.226Z,9.35
2019-02-12T01:43:01.675Z,11.10
2019-02-12T01:45:30.196Z,8.73
2019-02-12T01:47:58.694Z,7.85
2019-02-12T01:50:26.959Z,4.50
2019-02-12T01:52:55.116Z,7.65
2019-02-12T01:55:23.207Z,7.97
2019-02-12T01:57:51.215Z,5.03
2019-02-12T02:00:21.097Z,8.03
2019-02-12T02:02:49.088Z,6.55
2019-02-12T02:05:17.181Z,6.47
2019-02-12T02:07:45.644Z,7.70
2019-02-12T02:10:17.901Z,6.80
2019-02-12T02:12:45.991Z,8.03
2019-02-12T02:15:14.175Z,7.50
2019-02-12T02:17:42.584Z,6.45
2019-02-12T02:20:10.902Z,8.00
2019-02-12T02:22:39.855Z,10.03
2019-02-12T02:25:09.284Z,12.07
2019-02-12T02:27:37.739Z,12.20
2019-02-12T02:30:06.740Z,9.73
2019-02-12T02:32:36.651Z,8.45
2019-02-12T02:35:04.885Z,7.17
2019-02-12T02:37:33.314Z,10.35
2019-02-12T02:40:01.418Z,9.10
2019-02-12T02:42:29.471Z,8.80
2019-02-12T02:44:57.567Z,8.65
2019-02-12T02:47:25.657Z,9.50
2019-02-12T02:49:54.601Z,8.38
2019-02-12T02:52:23.274Z,8.18
2019-02-12T02:54:51.758Z,7.23
2019-02-12T02:57:20.342Z,8.65
2019-02-12T02:59:49.317Z,7.05
2019-02-12T03:02:17.377Z,8.90
2019-02-12T03:04:45.931Z,9.58
2019-02-12T03:07:14.011Z,6.70
2019-02-12T03:09:42.666Z,6.75
2019-02-12T03:12:10.865Z,6.75
2019-02-12T03:14:39.302Z,6.53
2019-02-12T03:17:07.443Z,8.03
2019-02-12T03:19:35.504Z,7.55
2019-02-12T03:22:04.109Z,9.35
2019-02-12T03:24:32.541Z,7.30
2019-02-12T03:27:00.879Z,7.00
2019-02-12T03:29:29.011Z,9.83
2019-02-12T03:31:57.132Z,7.97
2019-02-12T03:34:25.311Z,8.73
2019-02-12T03:36:53.650Z,7.53
2019-02-12T03:39:22.087Z,9.83
2019-02-12T03:41:50.203Z,8.03
2019-02-12T03:44:18.290Z,5.47
2019-02-12T03:46:46.894Z,5.83
2019-02-12T03:49:15.341Z,8.30
2019-02-12T03:51:43.762Z,5.83
2019-02-12T03:54:12.373Z,6.73
2019-02-12T03:56:40.599Z,8.75
2019-02-12T03:59:09.525Z,9.00
2019-02-12T04:01:37.707Z,7.15
2019-02-12T04:04:06.213Z,6.73
2019-02-12T04:06:34.852Z,8.08
2019-02-12T04:09:03.093Z,10.72
2019-02-12T04:11:32.438Z,10.98
2019-02-12T04:14:01.238Z,9.63
2019-02-12T04:16:29.688Z,8.75
2019-02-12T04:18:58.267Z,8.90
2019-02-12T04:21:26.899Z,6.62
2019-02-12T04:23:55.602Z,7.78
2019-02-12T04:26:24.741Z,8.20
2019-02-12T04:28:53.556Z,10.18
2019-02-12T04:31:22.069Z,6.80
2019-02-12T04:33:50.130Z,10.03
2019-02-12T04:36:18.234Z,5.90
2019-02-12T04:38:46.652Z,5.80
2019-02-12T04:41:15.287Z,7.10
2019-02-12T04:43:43.920Z,5.80
2019-02-12T04:46:12.501Z,8.23
2019-02-12T04:48:40.554Z,11.40
2019-02-12T04:51:08.970Z,7.45
2019-02-12T04:53:38.797Z,7.55
2019-02-12T04:56:06.784Z,10.80
2019-02-12T04:58:35.137Z,9.53
2019-02-12T05:01:04.030Z,8.35
2019-02-12T05:03:32.754Z,7.08
2019-02-12T05:06:01.514Z,9.95
2019-02-12T05:08:40.633Z,4.87
2019-02-12T05:11:09.403Z,7.65
2019-02-12T05:13:37.769Z,8.03
2019-02-12T05:16:05.904Z,11.53
2019-02-12T05:18:34.748Z,7.62
2019-02-12T05:21:03.379Z,6.47
2019-02-12T05:23:31.536Z,7.20
2019-02-12T05:25:59.725Z,7.20
2019-02-12T05:28:28.558Z,12.93
2019-02-12T05:30:57.119Z,14.43
2019-02-12T05:33:25.099Z,7.97
2019-02-12T05:35:53.176Z,9.25
2019-02-12T05:38:21.306Z,10.93
2019-02-12T05:40:49.901Z,10.85
2019-02-12T05:43:17.962Z,7.47
2019-02-12T05:45:46.825Z,8.70
2019-02-12T05:48:15.404Z,6.87
2019-02-12T05:50:43.988Z,12.50
2019-02-12T05:53:12.597Z,9.15
2019-02-12T05:55:41.470Z,10.45
2019-02-12T05:58:09.564Z,9.53
2019-02-12T06:00:38.439Z,9.48
2019-02-12T06:03:07.049Z,11.60
2019-02-12T06:05:35.626Z,10.93
2019-02-12T06:08:04.091Z,9.43
2019-02-12T06:10:32.187Z,9.78
2019-02-12T06:13:00.677Z,12.63
2019-02-12T06:15:28.854Z,10.87
2019-02-12T06:17:57.253Z,8.38
2019-02-12T06:20:25.334Z,8.65
2019-02-12T06:23:03.080Z,11.00
2019-02-12T06:25:23.585Z,11.68
2019-02-12T06:27:52.076Z,10.03
2019-02-12T06:30:21.248Z,13.13
2019-02-12T06:32:49.544Z,15.40
2019-02-12T06:35:17.671Z,12.00
2019-02-12T06:37:45.711Z,12.88
2019-02-12T06:40:13.883Z,11.33
2019-02-12T06:42:42.250Z,7.47
2019-02-12T06:45:11.212Z,12.15
2019-02-12T06:47:39.319Z,10.58
2019-02-12T06:50:08.310Z,14.87
2019-02-12T06:52:36.857Z,11.30
2019-02-12T06:55:05.952Z,10.43
2019-02-12T06:57:34.515Z,9.33
2019-02-12T07:00:03.054Z,10.10
2019-02-12T07:02:49.229Z,11.12
2019-02-12T07:05:17.845Z,11.95
2019-02-12T07:08:08.010Z,11.12
2019-02-12T07:10:37.281Z,11.90
2019-02-12T07:13:15.581Z,12.10
2019-02-12T07:15:46.180Z,11.83
2019-02-12T07:18:42.478Z,9.63
2019-02-12T07:21:19.241Z,11.20
2019-02-12T07:24:08.876Z,10.00
2019-02-12T07:26:50.377Z,13.38
2019-02-12T07:29:45.696Z,13.38
2019-02-12T07:32:42.004Z,14.05
2019-02-12T07:35:31.001Z,12.55
2019-02-12T07:38:17.314Z,13.50
2019-02-12T07:41:19.896Z,10.68
2019-02-12T07:44:08.965Z,12.65
2019-02-12T07:46:59.499Z,11.57
2019-02-12T07:49:49.500Z,11.78
2019-02-12T07:52:42.765Z,13.10
2019-02-12T07:55:48.310Z,10.00
2019-02-12T07:58:47.346Z,12.40
2019-02-12T08:01:21.075Z,10.07
2019-02-12T08:04:06.587Z,14.18
2019-02-12T08:06:47.341Z,8.33
2019-02-12T08:09:36.565Z,9.13
2019-02-12T08:12:12.240Z,12.88
2019-02-12T08:14:45.213Z,13.08
2019-02-12T08:17:36.473Z,9.83
2019-02-12T08:20:16.828Z,10.27
2019-02-12T08:23:04.642Z,10.00
2019-02-12T08:26:07.253Z,12.68
2019-02-12T08:28:53.063Z,13.00
2019-02-12T08:31:24.387Z,10.68
2019-02-12T08:33:55.884Z,14.40
2019-02-12T08:36:46.275Z,10.53
2019-02-12T08:39:30.782Z,13.48
2019-02-12T08:42:04.497Z,10.47
2019-02-12T08:44:51.636Z,11.45
2019-02-12T08:47:34.075Z,13.50
2019-02-12T08:50:27.449Z,11.83
2019-02-12T08:53:01.177Z,12.03
2019-02-12T08:56:03.688Z,11.75
2019-02-12T08:58:35.094Z,14.03
2019-02-12T09:01:15.586Z,16.63
2019-02-12T09:04:05.947Z,11.43
2019-02-12T09:06:51.737Z,13.93
2019-02-12T09:09:54.343Z,9.10
2019-02-12T09:12:37.673Z,7.10
2019-02-12T09:15:33.656Z,11.95
2019-02-12T09:18:07.172Z,9.58
2019-02-12T09:20:53.274Z,11.85
2019-02-12T09:23:39.160Z,14.20
2019-02-12T09:26:10.399Z,10.28
2019-02-12T09:29:06.976Z,16.57
2019-02-12T09:31:52.924Z,15.33
2019-02-12T09:34:39.045Z,12.03
2019-02-12T09:37:17.058Z,10.95
2019-02-12T09:39:54.169Z,8.00
2019-02-12T09:42:32.942Z,11.05
2019-02-12T09:45:13.821Z,10.95
2019-02-12T09:47:48.356Z,10.82
2019-02-12T09:50:26.463Z,10.23
2019-02-12T09:53:10.979Z,12.90
2019-02-12T09:55:48.829Z,8.70
2019-02-12T09:58:35.536Z,12.50
2019-02-12T10:01:06.998Z,10.32
2019-02-12T10:03:57.222Z,11.10
2019-02-12T10:06:38.867Z,6.10
2019-02-12T10:09:18.920Z,10.23
2019-02-12T10:12:06.053Z,9.65
2019-02-12T10:15:02.762Z,10.05
2019-02-12T10:17:56.327Z,10.00
2019-02-12T10:20:43.467Z,9.23
2019-02-12T10:23:46.477Z,8.30
2019-02-12T10:26:15.914Z,9.35
2019-02-12T10:29:01.862Z,9.05
2019-02-12T10:31:43.012Z,9.35
2019-02-12T10:34:11.810Z,11.18
2019-02-12T10:36:41.417Z,9.15
2019-02-12T10:39:11.239Z,9.70
2019-02-12T10:41:39.603Z,8.78
2019-02-12T10:44:08.227Z,8.08
2019-02-12T10:46:36.624Z,9.28
2019-02-12T10:49:04.741Z,9.85
2019-02-12T10:51:32.972Z,9.65
2019-02-12T10:54:01.031Z,8.63
2019-02-12T10:56:29.516Z,11.15
2019-02-12T10:58:57.841Z,9.10
2019-02-12T11:01:25.871Z,8.75
2019-02-12T11:03:53.959Z,12.30
2019-02-12T11:06:22.029Z,8.90
2019-02-12T11:08:50.066Z,7.40
2019-02-12T11:11:18.459Z,12.17
2019-02-12T11:13:46.893Z,11.57
2019-02-12T11:16:15.272Z,8.25
2019-02-12T11:18:43.605Z,13.67
2019-02-12T11:21:12.430Z,8.38
2019-02-12T11:23:40.597Z,7.40
2019-02-12T11:26:09.421Z,9.03
2019-02-12T11:28:37.811Z,8.83
2019-02-12T11:31:06.322Z,9.15
2019-02-12T11:33:34.410Z,8.93
2019-02-12T11:36:03.346Z,11.40
2019-02-12T11:38:31.707Z,12.70
2019-02-12T11:40:59.851Z,7.37
2019-02-12T11:43:28.676Z,12.10
2019-02-12T11:45:57.410Z,10.35
2019-02-12T11:48:25.580Z,10.68
2019-02-12T11:50:53.749Z,8.20
2019-02-12T11:53:21.894Z,9.50
2019-02-12T11:55:50.166Z,7.33
2019-02-12T11:58:18.248Z,10.90
2019-02-12T12:00:51.112Z,8.28
2019-02-12T12:03:19.887Z,11.60
2019-02-12T12:05:48.288Z,8.10
2019-02-12T12:08:17.076Z,7.37
2019-02-12T12:10:45.997Z,11.08
2019-02-12T12:13:14.043Z,6.90
2019-02-12T12:15:42.406Z,8.05
2019-02-12T12:18:11.517Z,8.90
2019-02-12T12:20:39.909Z,8.00
2019-02-12T12:23:08.578Z,7.87
2019-02-12T12:25:36.857Z,9.95
2019-02-12T12:28:05.242Z,8.83
2019-02-12T12:30:33.886Z,7.55
2019-02-12T12:33:02.301Z,8.13
2019-02-12T12:35:30.705Z,8.35
2019-02-12T12:37:59.365Z,9.93
2019-02-12T12:40:27.739Z,10.23
2019-02-12T12:42:56.233Z,10.82
2019-02-12T12:45:24.594Z,8.88
2019-02-12T12:47:52.989Z,8.05
2019-02-12T12:50:21.373Z,6.87
2019-02-12T12:52:49.778Z,6.40
2019-02-12T12:55:18.440Z,10.68
2019-02-12T12:57:47.028Z,8.15
2019-02-12T13:00:15.710Z,6.45
2019-02-12T13:02:43.721Z,9.20
2019-02-12T13:05:12.199Z,7.50
2019-02-12T13:07:40.950Z,9.25
2019-02-12T13:10:10.240Z,8.75
2019-02-12T13:12:38.275Z,9.25
2019-02-12T13:15:07.059Z,7.75
2019-02-12T13:17:35.217Z,7.70
2019-02-12T13:20:03.662Z,8.57
2019-02-12T13:22:33.216Z,9.90
2019-02-12T13:25:08.239Z,9.00
2019-02-12T13:27:31.755Z,6.33
2019-02-12T13:30:00.311Z,9.83
2019-02-12T13:32:28.479Z,7.75
2019-02-12T13:34:56.488Z,8.55
2019-02-12T13:37:24.941Z,6.87
2019-02-12T13:39:53.566Z,9.58
2019-02-12T13:42:21.913Z,7.53
2019-02-12T13:44:50.253Z,7.87
2019-02-12T13:47:18.295Z,10.00
2019-02-12T13:49:46.690Z,10.32
2019-02-12T13:52:14.871Z,7.37
2019-02-12T13:54:43.310Z,10.97
2019-02-12T13:57:13.282Z,8.83
2019-02-12T13:59:42.585Z,11.53
2019-02-12T14:02:10.711Z,9.20
2019-02-12T14:04:40.737Z,10.00
2019-02-12T14:07:09.724Z,8.68
2019-02-12T14:09:38.458Z,10.35
2019-02-12T14:12:06.995Z,9.93
2019-02-12T14:14:35.256Z,9.30
2019-02-12T14:17:03.397Z,7.97
2019-02-12T14:19:31.860Z,13.35
2019-02-12T14:21:59.993Z,7.90
2019-02-12T14:24:29.595Z,11.97
2019-02-12T14:26:58.090Z,10.63
2019-02-12T14:29:26.741Z,8.18
2019-02-12T14:31:54.884Z,12.88
2019-02-12T14:34:23.587Z,14.68
2019-02-12T14:36:52.131Z,11.55
2019-02-12T14:39:20.275Z,18.62
2019-02-12T14:41:50.305Z,15.03
2019-02-12T14:44:18.691Z,9.95
2019-02-12T14:46:46.749Z,10.90
2019-02-12T14:49:14.902Z,13.18
2019-02-12T14:51:42.936Z,11.73
2019-02-12T14:54:11.653Z,10.45
2019-02-12T14:56:40.180Z,13.33
2019-02-12T14:59:08.284Z,9.75
2019-02-12T15:01:36.326Z,10.55
2019-02-12T15:04:04.691Z,9.68
2019-02-12T15:06:32.753Z,9.48
2019-02-12T15:09:00.756Z,8.98
2019-02-12T15:11:29.186Z,9.15
2019-02-12T15:13:57.860Z,7.90
2019-02-12T15:16:25.935Z,12.30
2019-02-12T15:18:54.259Z,8.93
2019-02-12T15:21:22.363Z,8.30
2019-02-12T15:23:50.460Z,11.15
2019-02-12T15:26:18.909Z,11.53
2019-02-12T15:28:47.054Z,11.48
2019-02-12T15:31:15.584Z,11.63
2019-02-12T15:33:44.075Z,12.68
2019-02-12T15:36:12.468Z,9.45
2019-02-12T15:38:41.448Z,9.35
2019-02-12T15:41:09.872Z,11.35
2019-02-12T15:43:37.896Z,11.05
2019-02-12T15:46:06.337Z,11.93
2019-02-12T15:48:34.712Z,12.85
2019-02-12T15:51:03.134Z,9.43
2019-02-12T15:53:31.513Z,9.63
2019-02-12T15:56:00.302Z,13.72
2019-02-12T15:58:29.859Z,16.80
2019-02-12T16:00:58.089Z,12.85
2019-02-12T16:03:26.541Z,12.07
2019-02-12T16:05:56.629Z,11.38
2019-02-12T16:08:24.556Z,10.05
2019-02-12T16:10:52.601Z,13.72
2019-02-12T16:13:20.603Z,10.68
2019-02-12T16:15:48.656Z,10.30
2019-02-12T16:18:17.157Z,15.40
2019-02-12T16:20:45.625Z,12.57
2019-02-12T16:23:14.077Z,12.18
2019-02-12T16:25:42.482Z,10.13
2019-02-12T16:28:11.040Z,11.97
2019-02-12T16:30:39.124Z,17.52
2019-02-12T16:33:07.781Z,15.00
2019-02-12T16:35:35.817Z,16.55
2019-02-12T16:38:04.556Z,29.52
2019-02-12T16:40:32.940Z,17.75
2019-02-12T16:43:01.623Z,24.65
2019-02-12T16:45:31.958Z,20.65
2019-02-12T16:48:00.263Z,14.05
2019-02-12T16:50:28.521Z,12.90
2019-02-12T16:52:56.873Z,9.30
2019-02-12T16:55:24.896Z,9.73
2019-02-12T16:57:52.911Z,7.35
2019-02-12T17:00:21.303Z,8.90
2019-02-12T17:02:49.364Z,8.07
2019-02-12T17:05:17.753Z,4.70
2019-02-12T17:07:45.910Z,8.35
2019-02-12T17:10:13.997Z,12.18
2019-02-12T17:12:42.726Z,8.50
2019-02-12T17:15:10.855Z,9.13
2019-02-12T17:17:38.876Z,9.85
2019-02-12T17:20:08.328Z,9.83
2019-02-12T17:22:36.713Z,9.73
2019-02-12T17:25:05.403Z,9.85
2019-02-12T17:27:33.482Z,9.05
2019-02-12T17:30:02.157Z,10.25
2019-02-12T17:32:30.566Z,8.10
2019-02-12T17:35:01.407Z,11.03
2019-02-12T17:37:28.928Z,7.67
2019-02-12T17:39:56.936Z,9.63
2019-02-12T17:42:25.590Z,6.47
2019-02-12T17:44:54.039Z,10.65
2019-02-12T17:47:22.349Z,8.40
2019-02-12T17:49:50.788Z,7.50
2019-02-12T17:52:19.144Z,8.23
2019-02-12T17:54:47.775Z,12.00
2019-02-12T17:57:16.664Z,7.47
2019-02-12T17:59:45.467Z,9.55
2019-02-12T18:02:14.035Z,12.30
2019-02-12T18:04:42.476Z,11.55
2019-02-12T18:07:11.061Z,10.32
2019-02-12T18:09:39.091Z,10.23
2019-02-12T18:12:07.166Z,9.73
2019-02-12T18:14:35.551Z,5.90
2019-02-12T18:17:03.847Z,10.50
2019-02-12T18:19:32.670Z,9.53
2019-02-12T18:22:02.525Z,7.72
2019-02-12T18:24:30.695Z,6.37
2019-02-12T18:26:58.812Z,8.90
2019-02-12T18:29:27.840Z,9.05
2019-02-12T18:31:56.488Z,8.35
2019-02-12T18:34:24.967Z,5.27
2019-02-12T18:36:53.081Z,8.75
2019-02-12T18:39:21.988Z,6.00
2019-02-12T18:41:50.160Z,9.18
2019-02-12T18:44:18.478Z,12.78
2019-02-12T18:46:47.245Z,7.63
2019-02-12T18:49:15.444Z,11.68
2019-02-12T18:51:44.103Z,8.77
2019-02-12T18:54:12.408Z,8.03
2019-02-12T18:56:41.845Z,9.60
2019-02-12T18:59:10.369Z,10.15
2019-02-12T19:01:38.514Z,10.57
2019-02-12T19:04:06.652Z,8.43
2019-02-12T19:06:34.816Z,7.62
2019-02-12T19:09:02.901Z,54.65
2019-02-12T19:11:33.357Z,29.07
2019-02-12T19:14:01.591Z,14.23
2019-02-12T19:16:29.940Z,32.42
2019-02-12T19:18:58.385Z,28.83
2019-02-12T19:21:26.376Z,11.90
2019-02-12T19:23:54.820Z,19.20
2019-02-12T19:26:23.764Z,9.98
2019-02-12T19:28:52.078Z,13.53
2019-02-12T19:31:20.768Z,9.58
2019-02-12T19:33:49.258Z,8.60
2019-02-12T19:36:17.345Z,11.43
2019-02-12T19:38:45.410Z,9.77
2019-02-12T19:41:13.564Z,10.60
2019-02-12T19:43:42.346Z,9.33
2019-02-12T19:46:10.455Z,11.30
2019-02-12T19:48:38.634Z,11.10
2019-02-12T19:51:07.097Z,11.22
2019-02-12T19:53:35.876Z,7.83
2019-02-12T19:56:04.405Z,13.03
2019-02-12T19:58:33.372Z,10.93
2019-02-12T20:01:01.456Z,10.27
2019-02-12T20:03:29.966Z,11.00
2019-02-12T20:05:58.543Z,11.28
2019-02-12T20:08:26.992Z,8.83
2019-02-12T20:10:55.035Z,11.48
2019-02-12T20:13:23.489Z,11.75
2019-02-12T20:15:51.866Z,13.10
2019-02-12T20:18:20.789Z,11.55
2019-02-12T20:20:49.298Z,13.83
2019-02-12T20:23:18.310Z,16.07
2019-02-12T20:25:46.877Z,13.23
2019-02-12T20:28:14.953Z,15.08
2019-02-12T20:30:44.761Z,16.00
2019-02-12T20:33:15.030Z,13.43
2019-02-12T20:35:43.347Z,15.75
2019-02-12T20:38:12.511Z,13.20
2019-02-12T20:40:41.395Z,13.80
2019-02-12T20:43:09.600Z,12.73
2019-02-12T20:45:38.861Z,12.95
2019-02-12T20:48:07.294Z,11.97
2019-02-12T20:50:35.832Z,11.50
2019-02-12T20:53:03.973Z,16.45
2019-02-12T20:55:32.240Z,15.03
2019-02-12T20:58:01.132Z,13.80
2019-02-12T21:00:29.702Z,14.38
2019-02-12T21:02:58.139Z,14.98
2019-02-12T21:05:27.049Z,9.08
2019-02-12T21:07:55.535Z,13.95
2019-02-12T21:10:25.359Z,21.05
2019-02-12T21:12:53.383Z,17.07
2019-02-12T21:15:22.954Z,12.50
2019-02-12T21:17:51.884Z,18.92
2019-02-12T21:20:19.996Z,13.32
2019-02-12T21:22:48.384Z,14.68
2019-02-12T21:25:16.670Z,17.43
2019-02-12T21:27:45.320Z,17.87
2019-02-12T21:30:14.860Z,19.67
2019-02-12T21:32:43.504Z,21.90
2019-02-12T21:35:12.288Z,21.80
2019-02-12T21:37:40.814Z,17.23
2019-02-12T21:40:11.455Z,18.57
2019-02-12T21:42:39.667Z,15.97
2019-02-12T21:45:08.718Z,21.52
2019-02-12T21:47:37.052Z,20.52
2019-02-12T21:50:05.943Z,22.00
2019-02-12T21:52:33.977Z,18.42
2019-02-12T21:55:02.408Z,19.27
2019-02-12T21:57:32.167Z,22.17
2019-02-12T22:00:01.339Z,22.25
2019-02-12T22:02:29.813Z,21.80
2019-02-12T22:04:58.111Z,22.30
2019-02-12T22:07:27.972Z,22.90
2019-02-12T22:09:56.094Z,22.73
2019-02-12T22:12:24.775Z,24.18
2019-02-12T22:14:53.249Z,26.60
2019-02-12T22:17:22.052Z,21.52
2019-02-12T22:19:50.841Z,23.18
2019-02-12T22:22:19.284Z,22.22
2019-02-12T22:24:47.616Z,25.20
2019-02-12T22:27:15.697Z,26.60
2019-02-12T22:29:44.140Z,25.48
2019-02-12T22:32:12.507Z,24.75
2019-02-12T22:34:41.171Z,23.92
2019-02-12T22:37:09.343Z,25.60
2019-02-12T22:39:37.972Z,25.80
2019-02-12T22:42:06.162Z,23.70
2019-02-12T22:44:34.328Z,26.68
2019-02-12T22:47:02.916Z,25.32
2019-02-12T22:49:31.102Z,23.87
2019-02-12T22:51:59.759Z,24.72
2019-02-12T22:54:29.729Z,23.30
2019-02-12T22:56:57.744Z,26.17
2019-02-12T22:59:26.604Z,23.67
2019-02-12T23:01:54.664Z,26.23
2019-02-12T23:04:23.537Z,28.70
2019-02-12T23:06:52.012Z,23.95
2019-02-12T23:09:20.065Z,24.72
2019-02-12T23:11:48.214Z,26.00
2019-02-12T23:14:16.569Z,28.42
2019-02-12T23:16:44.714Z,22.20
2019-02-12T23:19:12.956Z,26.73
2019-02-12T23:21:45.286Z,23.85
2019-02-12T23:24:13.842Z,26.52
2019-02-12T23:26:43.496Z,29.25
2019-02-12T23:29:12.177Z,28.32
2019-02-12T23:31:42.073Z,27.10
2019-02-12T23:34:11.337Z,28.23
2019-02-12T23:36:40.179Z,22.07
2019-02-12T23:39:08.184Z,28.80
2019-02-12T23:41:36.346Z,30.32
2019-02-12T23:44:04.478Z,25.57
2019-02-12T23:46:32.885Z,26.33
2019-02-12T23:49:03.295Z,30.62
2019-02-12T23:51:32.101Z,29.37
2019-02-12T23:54:00.744Z,28.35
2019-02-12T23:56:28.901Z,28.52
2019-02-12T23:58:59.697Z,27.62
